Fielding, Utah
Current Conditions -  °F | °C
As of 9:51 AM on Wednesday 22 Oct 2014 (Local Time) from KLGU Reporting Station
Clear Clear  
Wind Chill: 38°   Ceiling: Unl
Heat Index: 38°   Visibility: 10mi
Dew Point: 32°   Wind: 3mph
Humidity: 79%   Direction: 350°N
Pressure: 30.23"   Gusts: NA
Location:  41.81°N, 112.12°W
Report Text: KLGU 221551Z AUTO 35003KT 10SM CLR 03/00 A3023 RMK AO2 SLP240 T00330000 TSNO
Loading
Personal Weather Stations






























Interactive Weather Map
Tropical Storm Tracking
New forecast layout! Learn more

10-Day Weather Forecast

Advertisements
Track Severe Weather on mobile